createdAt,value
2022-09-07T00:00:03.893Z,11.13
2022-09-07T00:02:30.473Z,11.73
2022-09-07T00:04:57.132Z,11.13
2022-09-07T00:07:23.684Z,12.93
2022-09-07T00:09:51.477Z,12.32
2022-09-07T00:12:18.248Z,9.98
2022-09-07T00:14:44.802Z,7.20
2022-09-07T00:17:11.405Z,8.68
2022-09-07T00:19:38.041Z,5.05
2022-09-07T00:22:04.545Z,4.97
2022-09-07T00:24:31.065Z,5.30
2022-09-07T00:26:57.833Z,7.57
2022-09-07T00:29:24.497Z,6.78
2022-09-07T00:31:51.132Z,4.85
2022-09-07T00:34:17.703Z,4.63
2022-09-07T00:36:44.221Z,5.75
2022-09-07T00:39:10.716Z,9.05
2022-09-07T00:41:37.251Z,7.88
2022-09-07T00:44:42.411Z,5.68
2022-09-07T00:47:17.669Z,8.80
2022-09-07T00:49:47.920Z,8.82
2022-09-07T00:52:15.593Z,7.65
2022-09-07T00:54:47.335Z,9.20
2022-09-07T00:57:14.337Z,5.53
2022-09-07T00:59:46.179Z,5.88
2022-09-07T01:02:13.993Z,6.72
2022-09-07T01:04:40.933Z,7.57
2022-09-07T01:07:08.193Z,7.80
2022-09-07T01:09:35.157Z,5.43
2022-09-07T01:12:02.433Z,3.83
2022-09-07T01:14:32.573Z,4.28
2022-09-07T01:17:17.717Z,5.57
2022-09-07T01:20:18.522Z,7.93
2022-09-07T01:23:03.863Z,3.90
2022-09-07T01:25:39.471Z,4.90
2022-09-07T01:28:30.354Z,5.78
2022-09-07T01:30:59.694Z,6.15
2022-09-07T01:33:57.219Z,4.63
2022-09-07T01:36:50.807Z,3.80
2022-09-07T01:39:18.320Z,5.82
2022-09-07T01:42:10.966Z,4.13
2022-09-07T01:44:39.279Z,3.88
2022-09-07T01:47:30.677Z,5.00
2022-09-07T01:50:07.593Z,5.03
2022-09-07T01:52:41.497Z,5.60
2022-09-07T01:55:22.744Z,6.07
2022-09-07T01:57:59.709Z,6.38
2022-09-07T02:00:26.500Z,6.03
2022-09-07T02:03:00.040Z,4.57
2022-09-07T02:05:47.037Z,4.07
2022-09-07T02:08:17.728Z,4.82
2022-09-07T02:10:50.654Z,3.40
2022-09-07T02:13:24.405Z,6.40
2022-09-07T02:15:52.003Z,3.70
2022-09-07T02:18:20.003Z,4.38
2022-09-07T02:20:49.973Z,3.85
2022-09-07T02:23:23.166Z,3.40
2022-09-07T02:25:58.831Z,3.85
2022-09-07T02:28:36.544Z,3.53
2022-09-07T02:31:03.501Z,3.17
2022-09-07T02:33:30.369Z,5.90
2022-09-07T02:35:57.466Z,5.68
2022-09-07T02:38:24.964Z,5.55
2022-09-07T02:40:56.260Z,4.88
2022-09-07T02:43:23.735Z,5.55
2022-09-07T02:46:05.513Z,6.13
2022-09-07T02:48:51.274Z,4.35
2022-09-07T02:51:41.882Z,4.20
2022-09-07T02:54:12.862Z,6.55
2022-09-07T02:57:15.082Z,5.47
2022-09-07T02:59:44.286Z,4.18
2022-09-07T03:02:20.847Z,2.80
2022-09-07T03:05:09.018Z,3.47
2022-09-07T03:07:44.414Z,5.03
2022-09-07T03:10:12.569Z,5.25
2022-09-07T03:12:40.871Z,4.63
2022-09-07T03:15:09.699Z,5.85
2022-09-07T03:17:36.336Z,4.60
2022-09-07T03:20:03.268Z,5.63
2022-09-07T03:22:33.862Z,4.20
2022-09-07T03:25:00.793Z,3.58
2022-09-07T03:27:27.358Z,5.65
2022-09-07T03:29:53.894Z,6.28
2022-09-07T03:32:20.399Z,5.80
2022-09-07T03:34:48.440Z,5.85
2022-09-07T03:37:15.034Z,5.70
2022-09-07T03:39:41.598Z,5.93
2022-09-07T03:42:08.108Z,7.25
2022-09-07T03:44:34.632Z,5.22
2022-09-07T03:47:01.322Z,7.22
2022-09-07T03:49:27.968Z,5.65
2022-09-07T03:51:54.507Z,8.57
2022-09-07T03:54:21.012Z,6.15
2022-09-07T03:56:47.627Z,5.90
2022-09-07T03:59:14.224Z,7.07
2022-09-07T04:01:40.859Z,7.45
2022-09-07T04:04:07.519Z,5.22
2022-09-07T04:06:34.314Z,5.75
2022-09-07T04:09:05.889Z,6.95
2022-09-07T04:11:32.500Z,7.20
2022-09-07T04:13:59.187Z,7.78
2022-09-07T04:16:27.233Z,7.78
2022-09-07T04:18:57.662Z,8.65
2022-09-07T04:21:26.060Z,6.53
2022-09-07T04:23:53.120Z,5.72
2022-09-07T04:26:21.968Z,8.05
2022-09-07T04:28:48.916Z,7.75
2022-09-07T04:31:16.535Z,9.25
2022-09-07T04:33:44.489Z,10.70
2022-09-07T04:36:12.135Z,10.88
2022-09-07T04:38:40.120Z,8.13
2022-09-07T04:41:17.233Z,10.57
2022-09-07T04:43:44.734Z,9.27
2022-09-07T04:46:19.358Z,7.90
2022-09-07T04:48:49.900Z,10.00
2022-09-07T04:51:17.248Z,7.07
2022-09-07T04:53:43.783Z,5.85
2022-09-07T04:56:15.056Z,7.28
2022-09-07T04:58:43.652Z,8.57
2022-09-07T05:01:10.244Z,7.88
2022-09-07T05:03:38.085Z,9.35
2022-09-07T05:06:05.847Z,8.85
2022-09-07T05:08:46.101Z,7.65
2022-09-07T05:11:13.387Z,8.10
2022-09-07T05:13:40.303Z,7.20
2022-09-07T05:16:12.140Z,7.80
2022-09-07T05:18:38.727Z,5.90
2022-09-07T05:21:30.955Z,5.75
2022-09-07T05:24:00.948Z,5.25
2022-09-07T05:27:27.508Z,5.65
2022-09-07T05:33:03.984Z,12.10
2022-09-07T05:36:10.662Z,13.52
2022-09-07T05:39:00.066Z,14.20
2022-09-07T05:42:06.713Z,18.50
2022-09-07T05:47:07.449Z,17.10
2022-09-07T05:49:37.567Z,18.13
2022-09-07T05:52:04.308Z,16.90
2022-09-07T05:54:30.932Z,17.33
2022-09-07T05:57:44.654Z,17.13
2022-09-07T06:00:13.172Z,22.30
2022-09-07T06:02:40.064Z,16.10
2022-09-07T06:05:07.670Z,15.77
2022-09-07T06:07:34.175Z,17.08
2022-09-07T06:12:49.212Z,16.08
2022-09-07T06:15:16.219Z,17.48
2022-09-07T06:17:42.859Z,21.48
2022-09-07T06:20:12.042Z,26.50
2022-09-07T06:22:38.583Z,32.33
2022-09-07T06:25:05.713Z,27.25
2022-09-07T06:27:32.313Z,15.10
2022-09-07T06:29:58.954Z,19.77
2022-09-07T06:35:12.331Z,16.55
2022-09-07T06:37:39.107Z,15.93
2022-09-07T06:40:06.462Z,15.00
2022-09-07T06:42:33.047Z,17.30
2022-09-07T06:44:59.565Z,13.85
2022-09-07T06:47:26.158Z,16.08
2022-09-07T06:49:52.700Z,13.88
2022-09-07T06:52:19.284Z,15.02
2022-09-07T06:55:01.438Z,10.48
2022-09-07T06:57:28.217Z,12.90
2022-09-07T06:59:54.723Z,16.23
2022-09-07T07:02:21.329Z,14.23
2022-09-07T07:04:47.984Z,13.25
2022-09-07T07:07:15.538Z,14.00
2022-09-07T07:09:42.375Z,9.73
2022-09-07T07:12:10.173Z,9.35
2022-09-07T07:14:38.661Z,10.60
2022-09-07T07:17:09.513Z,10.07
2022-09-07T07:19:36.072Z,10.20
2022-09-07T07:22:14.415Z,11.65
2022-09-07T07:24:49.312Z,13.38
2022-09-07T07:27:15.905Z,14.75
2022-09-07T07:29:43.218Z,9.07
2022-09-07T07:32:09.813Z,8.88
2022-09-07T07:35:13.972Z,10.65
2022-09-07T07:37:40.814Z,12.45
2022-09-07T07:40:19.112Z,11.93
2022-09-07T07:42:50.162Z,15.00
2022-09-07T07:48:03.624Z,13.15
2022-09-07T07:50:32.013Z,12.35
2022-09-07T07:55:46.221Z,17.52
2022-09-07T07:58:12.932Z,19.45
2022-09-07T08:00:53.738Z,16.48
2022-09-07T08:03:22.344Z,11.80
2022-09-07T08:05:48.907Z,14.93
2022-09-07T08:08:15.638Z,18.85
2022-09-07T08:10:42.223Z,15.38
2022-09-07T08:13:08.688Z,14.30
2022-09-07T08:15:45.158Z,13.95
2022-09-07T08:18:12.649Z,12.60
2022-09-07T08:20:42.610Z,14.48
2022-09-07T08:23:09.534Z,11.82
2022-09-07T08:25:36.138Z,11.30
2022-09-07T08:28:02.946Z,11.13
2022-09-07T08:30:29.461Z,10.90
2022-09-07T08:32:55.959Z,10.63
2022-09-07T08:35:22.422Z,9.52
2022-09-07T08:37:48.986Z,12.90
2022-09-07T08:40:19.166Z,11.45
2022-09-07T08:42:57.802Z,9.73
2022-09-07T08:45:45.538Z,13.00
2022-09-07T08:48:15.204Z,10.38
2022-09-07T08:50:52.915Z,12.98
2022-09-07T08:53:21.097Z,9.25
2022-09-07T08:56:00.023Z,10.85
2022-09-07T08:58:49.191Z,7.72
2022-09-07T09:01:37.649Z,11.77
2022-09-07T09:04:16.080Z,6.80
2022-09-07T09:06:54.027Z,9.05
2022-09-07T09:09:36.679Z,7.72
2022-09-07T09:12:18.340Z,7.82
2022-09-07T09:15:18.089Z,7.78
2022-09-07T09:17:48.625Z,6.53
2022-09-07T09:20:33.488Z,7.30
2022-09-07T09:23:20.338Z,7.32
2022-09-07T09:25:57.808Z,6.78
2022-09-07T09:28:26.450Z,9.30
2022-09-07T09:30:55.497Z,8.30
2022-09-07T09:33:25.881Z,4.78
2022-09-07T09:35:54.579Z,7.35
2022-09-07T09:38:45.384Z,7.15
2022-09-07T09:41:13.469Z,6.80
2022-09-07T09:43:56.407Z,5.32
2022-09-07T09:46:26.622Z,8.73
2022-09-07T09:49:01.798Z,7.22
2022-09-07T09:54:34.540Z,8.63
2022-09-07T09:57:01.327Z,7.70
2022-09-07T10:05:34.403Z,10.40
2022-09-07T10:08:01.077Z,7.25
2022-09-07T10:10:28.717Z,6.50
2022-09-07T10:12:55.921Z,7.45
2022-09-07T10:15:29.232Z,8.38
2022-09-07T10:17:56.067Z,7.03
2022-09-07T10:20:22.506Z,7.85
2022-09-07T10:22:52.007Z,7.93
2022-09-07T10:25:39.595Z,6.40
2022-09-07T10:28:10.042Z,7.13
2022-09-07T10:30:42.449Z,6.47
2022-09-07T10:36:37.486Z,9.25
2022-09-07T10:39:11.108Z,9.68
2022-09-07T10:41:49.889Z,8.02
2022-09-07T10:48:13.730Z,7.68
2022-09-07T10:50:42.928Z,8.18
2022-09-07T10:53:42.301Z,8.05
2022-09-07T10:56:13.168Z,8.00
2022-09-07T10:59:03.600Z,9.75
2022-09-07T11:01:57.431Z,8.32
2022-09-07T11:04:44.333Z,9.48
2022-09-07T11:07:29.376Z,13.32
2022-09-07T11:10:19.327Z,7.85
2022-09-07T11:12:46.786Z,8.15
2022-09-07T11:15:13.187Z,8.77
2022-09-07T11:17:53.316Z,6.93
2022-09-07T11:20:26.090Z,7.57
2022-09-07T11:23:06.354Z,11.80
2022-09-07T11:25:58.604Z,6.38
2022-09-07T11:28:47.149Z,9.02
2022-09-07T11:31:22.540Z,9.90
2022-09-07T11:36:54.102Z,8.25
2022-09-07T11:39:26.358Z,8.77
2022-09-07T11:45:02.650Z,6.93
2022-09-07T11:47:56.223Z,9.18
2022-09-07T11:50:23.758Z,6.25
2022-09-07T11:52:53.838Z,11.85
2022-09-07T11:55:26.056Z,7.88
2022-09-07T11:58:22.811Z,12.48
2022-09-07T12:00:49.811Z,6.93
2022-09-07T12:03:50.070Z,11.40
2022-09-07T12:06:19.721Z,11.25
2022-09-07T12:09:03.173Z,7.55
2022-09-07T12:12:14.190Z,10.57
2022-09-07T12:14:48.163Z,12.48
2022-09-07T12:17:39.369Z,7.93
2022-09-07T12:20:17.864Z,8.27
2022-09-07T12:23:05.598Z,9.40
2022-09-07T12:25:33.693Z,10.50
2022-09-07T12:28:00.956Z,10.05
2022-09-07T12:30:28.128Z,9.55
2022-09-07T12:32:58.811Z,10.30
2022-09-07T12:35:28.301Z,6.47
2022-09-07T12:37:56.261Z,7.45
2022-09-07T12:40:29.181Z,9.57
2022-09-07T12:43:15.869Z,5.85
2022-09-07T12:45:42.442Z,9.65
2022-09-07T12:48:15.268Z,12.02
2022-09-07T12:51:07.864Z,5.10
2022-09-07T12:53:57.884Z,8.00
2022-09-07T12:56:37.382Z,10.48
2022-09-07T12:59:42.617Z,8.32
2022-09-07T13:02:34.192Z,9.97
2022-09-07T13:05:06.376Z,7.95
2022-09-07T13:07:41.760Z,11.88
2022-09-07T13:10:27.679Z,9.95
2022-09-07T13:13:00.510Z,9.60
2022-09-07T13:15:35.261Z,7.68
2022-09-07T13:18:03.545Z,5.88
2022-09-07T13:20:34.805Z,9.60
2022-09-07T13:23:25.013Z,12.13
2022-09-07T13:25:53.718Z,6.30
2022-09-07T13:28:40.604Z,10.05
2022-09-07T13:31:37.080Z,8.88
2022-09-07T13:34:43.804Z,11.55
2022-09-07T13:37:27.401Z,8.80
2022-09-07T13:39:56.620Z,6.65
2022-09-07T13:42:32.065Z,8.60
2022-09-07T13:45:01.419Z,10.80
2022-09-07T13:47:43.023Z,7.05
2022-09-07T13:50:28.375Z,9.80
2022-09-07T13:53:00.725Z,11.77
2022-09-07T13:55:49.035Z,7.93
2022-09-07T13:58:43.497Z,9.02
2022-09-07T14:01:13.004Z,9.10
2022-09-07T14:03:45.444Z,7.38
2022-09-07T14:06:20.642Z,6.13
2022-09-07T14:08:49.313Z,5.22
2022-09-07T14:11:21.708Z,9.23
2022-09-07T14:14:07.233Z,6.82
2022-09-07T14:16:35.004Z,9.73
2022-09-07T14:19:01.967Z,4.75
2022-09-07T14:21:28.474Z,3.92
2022-09-07T14:23:58.201Z,8.30
2022-09-07T14:26:24.764Z,6.45
2022-09-07T14:28:53.590Z,7.53
2022-09-07T14:31:21.520Z,8.20
2022-09-07T14:33:56.730Z,7.07
2022-09-07T14:36:44.078Z,5.65
2022-09-07T14:39:12.719Z,9.82
2022-09-07T14:41:41.369Z,7.55
2022-09-07T14:44:27.442Z,9.15
2022-09-07T14:46:56.871Z,6.68
2022-09-07T14:49:23.890Z,8.98
2022-09-07T14:51:52.877Z,6.80
2022-09-07T14:54:21.500Z,7.45
2022-09-07T14:57:27.375Z,6.80
2022-09-07T14:59:54.938Z,9.23
2022-09-07T15:02:37.015Z,5.72
2022-09-07T15:05:13.102Z,7.22
2022-09-07T15:07:41.361Z,9.48
2022-09-07T15:10:21.066Z,6.85
2022-09-07T15:12:52.644Z,8.80
2022-09-07T15:15:21.429Z,6.60
2022-09-07T15:17:48.274Z,5.65
2022-09-07T15:20:47.535Z,7.85
2022-09-07T15:23:16.627Z,5.30
2022-09-07T15:25:49.792Z,10.05
2022-09-07T15:34:02.128Z,9.40
2022-09-07T15:36:28.911Z,10.13
2022-09-07T15:39:03.401Z,10.23
2022-09-07T15:41:30.685Z,12.38
2022-09-07T15:43:57.387Z,6.55
2022-09-07T15:46:25.076Z,6.38
2022-09-07T15:48:55.784Z,7.30
2022-09-07T15:54:14.250Z,7.18
2022-09-07T15:57:48.113Z,12.55
2022-09-07T15:59:31.175Z,5.95
2022-09-07T16:01:58.584Z,5.75
2022-09-07T16:04:25.408Z,4.82
2022-09-07T16:06:51.981Z,5.28
2022-09-07T16:09:21.829Z,7.68
2022-09-07T16:11:50.092Z,13.05
2022-09-07T16:14:17.564Z,12.90
2022-09-07T16:19:34.601Z,7.13
2022-09-07T16:22:01.857Z,4.82
2022-09-07T16:24:28.451Z,5.78
2022-09-07T16:26:55.062Z,8.50
2022-09-07T16:29:24.699Z,9.27
2022-09-07T16:34:39.762Z,8.85
2022-09-07T16:37:06.890Z,10.10
2022-09-07T16:39:33.836Z,7.50
2022-09-07T16:42:00.464Z,8.20
2022-09-07T16:44:27.004Z,10.73
2022-09-07T16:46:53.719Z,12.50
2022-09-07T16:49:20.395Z,15.07
2022-09-07T16:51:46.935Z,12.38
2022-09-07T16:54:14.450Z,8.00
2022-09-07T16:56:40.958Z,8.88
2022-09-07T16:59:09.541Z,4.28
2022-09-07T17:01:37.877Z,9.70
2022-09-07T17:04:10.429Z,8.90
2022-09-07T17:06:37.491Z,8.38
2022-09-07T17:09:04.359Z,12.68
2022-09-07T17:11:33.056Z,10.82
2022-09-07T17:14:00.280Z,7.70
2022-09-07T17:16:29.617Z,9.05
2022-09-07T17:21:46.163Z,10.40
2022-09-07T17:24:12.805Z,11.07
2022-09-07T17:26:42.120Z,6.57
2022-09-07T17:29:09.593Z,8.65
2022-09-07T17:34:24.447Z,10.70
2022-09-07T17:36:51.651Z,7.97
2022-09-07T17:39:19.299Z,10.23
2022-09-07T17:41:52.574Z,8.38
2022-09-07T17:44:19.546Z,5.60
2022-09-07T17:46:46.076Z,6.40
2022-09-07T17:49:14.378Z,7.47
2022-09-07T17:51:41.075Z,6.18
2022-09-07T17:54:11.677Z,8.57
2022-09-07T17:56:38.933Z,7.78
2022-09-07T18:01:54.065Z,11.13
2022-09-07T18:04:21.237Z,7.85
2022-09-07T18:06:47.927Z,9.65
2022-09-07T18:09:14.524Z,9.93
2022-09-07T18:11:47.072Z,14.20
2022-09-07T18:14:15.012Z,13.57
2022-09-07T18:16:42.978Z,12.57
2022-09-07T18:19:11.213Z,9.27
2022-09-07T18:21:38.472Z,10.35
2022-09-07T18:24:07.629Z,9.18
2022-09-07T18:26:38.358Z,9.93
2022-09-07T18:29:13.200Z,12.52
2022-09-07T18:31:45.862Z,14.57
2022-09-07T18:34:12.447Z,12.13
2022-09-07T18:36:40.747Z,9.23
2022-09-07T18:39:07.456Z,10.93
2022-09-07T18:41:34.854Z,6.35
2022-09-07T18:44:01.641Z,12.20
2022-09-07T18:46:28.353Z,6.38
2022-09-07T18:48:55.340Z,6.93
2022-09-07T18:51:21.977Z,7.85
2022-09-07T18:53:48.641Z,6.28
2022-09-07T18:56:17.667Z,11.82
2022-09-07T18:58:45.585Z,6.25
2022-09-07T19:01:14.574Z,10.95
2022-09-07T19:03:41.767Z,10.48
2022-09-07T19:06:10.790Z,7.22
2022-09-07T19:08:37.969Z,4.70
2022-09-07T19:11:08.287Z,7.45
2022-09-07T19:13:35.609Z,7.32
2022-09-07T19:16:14.213Z,5.35
2022-09-07T19:18:48.277Z,7.82
2022-09-07T19:21:17.057Z,10.48
2022-09-07T19:23:43.577Z,8.07
2022-09-07T19:26:10.413Z,7.93
2022-09-07T19:28:36.920Z,18.10
2022-09-07T19:31:04.934Z,8.55
2022-09-07T19:33:32.581Z,10.65
2022-09-07T19:36:06.085Z,8.80
2022-09-07T19:38:32.925Z,11.50
2022-09-07T19:41:00.423Z,12.27
2022-09-07T19:43:30.590Z,13.77
2022-09-07T19:45:57.101Z,8.45
2022-09-07T19:48:23.691Z,17.30
2022-09-07T19:50:50.844Z,11.75
2022-09-07T19:53:18.142Z,13.25
2022-09-07T19:55:44.889Z,12.30
2022-09-07T19:58:12.550Z,11.95
2022-09-07T20:00:41.787Z,14.95
2022-09-07T20:03:10.478Z,13.43
2022-09-07T20:05:40.765Z,12.27
2022-09-07T20:08:08.640Z,16.50
2022-09-07T20:10:36.324Z,15.90
2022-09-07T20:13:03.032Z,17.15
2022-09-07T20:15:29.575Z,16.90
2022-09-07T20:17:56.127Z,14.32
2022-09-07T20:20:22.676Z,11.02
2022-09-07T20:22:49.310Z,14.93
2022-09-07T20:25:15.808Z,14.75
2022-09-07T20:27:42.555Z,12.15
2022-09-07T20:30:09.593Z,14.55
2022-09-07T20:32:36.229Z,11.27
2022-09-07T20:35:02.721Z,13.88
2022-09-07T20:37:29.224Z,9.25
2022-09-07T20:39:55.933Z,9.93
2022-09-07T20:42:22.570Z,12.18
2022-09-07T20:44:49.029Z,12.02
2022-09-07T20:47:15.499Z,12.65
2022-09-07T20:49:42.383Z,11.30
2022-09-07T20:52:08.854Z,9.00
2022-09-07T20:54:37.677Z,9.68
2022-09-07T20:57:04.466Z,11.02
2022-09-07T20:59:30.939Z,8.57
2022-09-07T21:01:57.532Z,11.18
2022-09-07T21:04:26.386Z,10.02
2022-09-07T21:06:52.962Z,11.35
2022-09-07T21:09:19.933Z,12.45
2022-09-07T21:11:49.698Z,10.32
2022-09-07T21:14:17.827Z,11.98
2022-09-07T21:16:44.423Z,15.00
2022-09-07T21:19:13.817Z,8.38
2022-09-07T21:21:42.095Z,9.85
2022-09-07T21:24:20.410Z,11.80
2022-09-07T21:26:47.379Z,9.02
2022-09-07T21:29:17.242Z,13.05
2022-09-07T21:31:44.247Z,8.95
2022-09-07T21:34:10.959Z,8.57
2022-09-07T21:36:37.636Z,11.80
2022-09-07T21:39:04.392Z,13.57
2022-09-07T21:41:31.241Z,12.02
2022-09-07T21:43:59.227Z,7.30
2022-09-07T21:46:26.499Z,9.27
2022-09-07T21:48:55.228Z,14.45
2022-09-07T21:51:22.240Z,10.23
2022-09-07T21:53:57.236Z,12.25
2022-09-07T21:56:24.383Z,13.05
2022-09-07T21:58:55.448Z,9.23
2022-09-07T22:01:23.497Z,14.65
2022-09-07T22:04:01.454Z,9.63
2022-09-07T22:06:29.277Z,13.38
2022-09-07T22:08:55.940Z,12.52
2022-09-07T22:11:23.852Z,13.90
2022-09-07T22:13:53.907Z,15.15
2022-09-07T22:16:20.439Z,13.00
2022-09-07T22:18:47.061Z,7.78
2022-09-07T22:21:16.321Z,10.30
2022-09-07T22:23:45.444Z,16.13
2022-09-07T22:26:12.985Z,9.70
2022-09-07T22:28:39.640Z,15.00
2022-09-07T22:31:15.043Z,12.85
2022-09-07T22:33:42.196Z,10.65
2022-09-07T22:36:44.404Z,11.52
2022-09-07T22:39:14.108Z,14.52
2022-09-07T22:41:41.719Z,15.70
2022-09-07T22:44:11.546Z,13.52
2022-09-07T22:46:39.545Z,16.77
2022-09-07T22:49:06.908Z,13.77
2022-09-07T22:51:33.822Z,16.45
2022-09-07T22:54:00.779Z,20.45
2022-09-07T22:56:29.616Z,15.80
2022-09-07T22:58:58.287Z,13.82
2022-09-07T23:01:26.173Z,12.60
2022-09-07T23:03:53.515Z,14.98
2022-09-07T23:06:27.442Z,12.20
2022-09-07T23:08:55.571Z,11.23
2022-09-07T23:11:22.610Z,9.55
2022-09-07T23:13:53.139Z,9.75
2022-09-07T23:16:20.566Z,11.27
2022-09-07T23:18:47.174Z,7.00
2022-09-07T23:21:13.936Z,9.15
2022-09-07T23:23:40.424Z,12.02
2022-09-07T23:26:07.514Z,12.63
2022-09-07T23:28:34.425Z,9.43
2022-09-07T23:31:01.029Z,12.68
2022-09-07T23:33:27.713Z,11.23
2022-09-07T23:36:03.195Z,11.05
2022-09-07T23:38:30.292Z,11.57
2022-09-07T23:40:57.868Z,10.55
2022-09-07T23:43:27.128Z,16.33
2022-09-07T23:45:54.332Z,16.77
2022-09-07T23:48:21.646Z,12.75
2022-09-07T23:50:48.512Z,12.98
2022-09-07T23:53:15.648Z,12.20
2022-09-07T23:55:42.391Z,12.63
2022-09-07T23:58:09.440Z,8.73
